Banks, Oregon
Current Conditions -  °F | °C
As of 6:53 AM on Wednesday 22 Oct 2014 (Local Time) from KHIO Reporting Station
Light Rain Light Rain  
Wind Chill: 57°   Ceiling: 4100
Heat Index: 57°   Visibility: 10mi
Dew Point: 52°   Wind: 14mph
Humidity: 83%   Direction: 170°S
Pressure: 29.75"   Gusts: NA
Location:  45.62°N, 123.11°W
Report Text: KHIO 221353Z 17012KT 10SM -RA BKN041 OVC049 14/11 A2975 RMK AO2 SLP074 P0001 T01390111
Loading
Personal Weather Stations






























Interactive Weather Map
Tropical Storm Tracking
New forecast layout! Learn more

10-Day Weather Forecast

Advertisements
Track Severe Weather on mobile